sensor_id;sensor_type;location;lat;lon;timestamp;pressure;altitude;pressure_sealevel;temperature;humidity
56414;BME280;42318;48.452;19.526;2022-07-22T00:00:54;98447.06;;;25.85;40.60
56414;BME280;42318;48.452;19.526;2022-07-22T00:08:25;98450.09;;;25.83;40.29
56414;BME280;42318;48.452;19.526;2022-07-22T00:15:56;98450.69;;;25.80;40.05
56414;BME280;42318;48.452;19.526;2022-07-22T00:23:27;98443.25;;;25.81;40.04
56414;BME280;42318;48.452;19.526;2022-07-22T00:30:58;98450.16;;;25.78;39.98
56414;BME280;42318;48.452;19.526;2022-07-22T00:38:29;98448.53;;;25.77;40.09
56414;BME280;42318;48.452;19.526;2022-07-22T00:45:59;98443.34;;;25.76;40.19
56414;BME280;42318;48.452;19.526;2022-07-22T00:53:30;98439.78;;;25.75;40.17
56414;BME280;42318;48.452;19.526;2022-07-22T01:01:01;98443.09;;;25.72;40.09
56414;BME280;42318;48.452;19.526;2022-07-22T01:08:33;98438.72;;;25.71;40.31
56414;BME280;42318;48.452;19.526;2022-07-22T01:16:04;98436.06;;;25.66;40.18
56414;BME280;42318;48.452;19.526;2022-07-22T01:23:36;98433.88;;;25.63;39.64
56414;BME280;42318;48.452;19.526;2022-07-22T01:31:07;98431.66;;;25.65;39.30
56414;BME280;42318;48.452;19.526;2022-07-22T01:38:38;98432.19;;;25.67;38.74
56414;BME280;42318;48.452;19.526;2022-07-22T01:46:09;98437.44;;;25.63;39.47
56414;BME280;42318;48.452;19.526;2022-07-22T01:53:39;98437.19;;;25.60;38.95
56414;BME280;42318;48.452;19.526;2022-07-22T02:01:10;98434.16;;;25.61;39.91
56414;BME280;42318;48.452;19.526;2022-07-22T02:08:41;98438.56;;;25.57;39.76
56414;BME280;42318;48.452;19.526;2022-07-22T02:16:12;98442.44;;;25.56;40.06
56414;BME280;42318;48.452;19.526;2022-07-22T02:23:42;98453.69;;;25.55;39.53
56414;BME280;42318;48.452;19.526;2022-07-22T02:31:13;98462.22;;;25.53;39.91
56414;BME280;42318;48.452;19.526;2022-07-22T02:38:44;98466.06;;;25.52;39.91
56414;BME280;42318;48.452;19.526;2022-07-22T02:46:15;98462.13;;;25.63;40.51
56414;BME280;42318;48.452;19.526;2022-07-22T02:53:46;98460.16;;;25.69;40.54
56414;BME280;42318;48.452;19.526;2022-07-22T03:01:17;98463.13;;;25.73;40.73
56414;BME280;42318;48.452;19.526;2022-07-22T03:08:48;98465.59;;;25.74;40.98
56414;BME280;42318;48.452;19.526;2022-07-22T03:16:19;98469.38;;;25.78;41.19
56414;BME280;42318;48.452;19.526;2022-07-22T03:23:49;98468.56;;;25.78;41.43
56414;BME280;42318;48.452;19.526;2022-07-22T03:31:23;98475.69;;;25.79;41.50
56414;BME280;42318;48.452;19.526;2022-07-22T03:38:55;98471.81;;;25.80;41.76
56414;BME280;42318;48.452;19.526;2022-07-22T03:46:26;98474.28;;;25.81;41.71
56414;BME280;42318;48.452;19.526;2022-07-22T03:53:58;98492.38;;;25.82;42.10
56414;BME280;42318;48.452;19.526;2022-07-22T04:01:28;98475.09;;;25.82;42.17
56414;BME280;42318;48.452;19.526;2022-07-22T04:09:00;98485.25;;;25.81;42.29
56414;BME280;42318;48.452;19.526;2022-07-22T04:16:30;98471.53;;;25.81;42.59
56414;BME280;42318;48.452;19.526;2022-07-22T04:24:01;98472.03;;;25.83;42.60
56414;BME280;42318;48.452;19.526;2022-07-22T04:38:42;98473.69;;;25.84;42.60
56414;BME280;42318;48.452;19.526;2022-07-22T04:46:13;98473.69;;;25.84;43.00
56414;BME280;42318;48.452;19.526;2022-07-22T04:53:44;98474.78;;;25.83;42.90
56414;BME280;42318;48.452;19.526;2022-07-22T05:01:14;98464.94;;;25.82;42.77
56414;BME280;42318;48.452;19.526;2022-07-22T05:08:45;98479.16;;;25.84;42.84
56414;BME280;42318;48.452;19.526;2022-07-22T05:16:16;98474.50;;;25.85;43.02
56414;BME280;42318;48.452;19.526;2022-07-22T05:23:46;98483.25;;;25.87;43.24
56414;BME280;42318;48.452;19.526;2022-07-22T05:31:17;98486.00;;;25.87;43.43
56414;BME280;42318;48.452;19.526;2022-07-22T05:38:48;98483.56;;;25.85;43.38
56414;BME280;42318;48.452;19.526;2022-07-22T05:46:19;98481.63;;;25.86;43.42
56414;BME280;42318;48.452;19.526;2022-07-22T05:53:50;98477.75;;;25.87;43.36
56414;BME280;42318;48.452;19.526;2022-07-22T06:01:21;98487.63;;;25.88;43.62
56414;BME280;42318;48.452;19.526;2022-07-22T06:08:51;98489.56;;;25.87;43.81
56414;BME280;42318;48.452;19.526;2022-07-22T06:16:22;98487.94;;;25.86;43.83
56414;BME280;42318;48.452;19.526;2022-07-22T06:23:53;98493.72;;;25.85;43.85
56414;BME280;42318;48.452;19.526;2022-07-22T06:31:23;98492.59;;;25.86;43.63
56414;BME280;42318;48.452;19.526;2022-07-22T06:38:54;98490.16;;;25.84;43.91
56414;BME280;42318;48.452;19.526;2022-07-22T06:46:25;98492.59;;;25.86;43.80
56414;BME280;42318;48.452;19.526;2022-07-22T06:53:55;98485.19;;;25.86;43.87
56414;BME280;42318;48.452;19.526;2022-07-22T07:01:26;98485.47;;;25.85;44.25
56414;BME280;42318;48.452;19.526;2022-07-22T07:08:57;98473.69;;;25.84;43.96
56414;BME280;42318;48.452;19.526;2022-07-22T07:16:28;98469.00;;;25.85;43.92
56414;BME280;42318;48.452;19.526;2022-07-22T07:23:59;98474.44;;;25.90;43.78
56414;BME280;42318;48.452;19.526;2022-07-22T07:31:30;98460.19;;;25.88;43.84
56414;BME280;42318;48.452;19.526;2022-07-22T07:39:01;98467.00;;;25.90;44.02
56414;BME280;42318;48.452;19.526;2022-07-22T07:46:32;98462.63;;;25.89;44.29
56414;BME280;42318;48.452;19.526;2022-07-22T07:54:03;98463.44;;;25.90;44.29
56414;BME280;42318;48.452;19.526;2022-07-22T08:01:33;98456.84;;;25.91;44.17
56414;BME280;42318;48.452;19.526;2022-07-22T08:09:04;98446.97;;;25.90;44.31
56414;BME280;42318;48.452;19.526;2022-07-22T08:16:35;98444.47;;;25.93;44.06
56414;BME280;42318;48.452;19.526;2022-07-22T08:24:05;98442.53;;;25.94;44.16
56414;BME280;42318;48.452;19.526;2022-07-22T08:31:38;98441.72;;;25.93;44.44
56414;BME280;42318;48.452;19.526;2022-07-22T08:39:09;98440.59;;;25.94;44.56
56414;BME280;42318;48.452;19.526;2022-07-22T08:46:39;98437.84;;;25.94;44.50
56414;BME280;42318;48.452;19.526;2022-07-22T08:54:10;98434.81;;;25.96;44.35
56414;BME280;42318;48.452;19.526;2022-07-22T09:02:05;98428.22;;;25.97;44.43
56414;BME280;42318;48.452;19.526;2022-07-22T09:09:36;98424.34;;;25.98;44.47
56414;BME280;42318;48.452;19.526;2022-07-22T09:17:06;98425.16;;;25.98;44.68
56414;BME280;42318;48.452;19.526;2022-07-22T09:24:38;98416.63;;;26.00;44.48
56414;BME280;42318;48.452;19.526;2022-07-22T09:32:08;98405.38;;;26.02;44.81
56414;BME280;42318;48.452;19.526;2022-07-22T09:39:39;98406.19;;;26.02;44.86
56414;BME280;42318;48.452;19.526;2022-07-22T09:47:30;98403.47;;;26.02;44.81
56414;BME280;42318;48.452;19.526;2022-07-22T09:55:01;98399.59;;;26.03;44.84
56414;BME280;42318;48.452;19.526;2022-07-22T10:02:32;98386.69;;;26.04;45.05
56414;BME280;42318;48.452;19.526;2022-07-22T10:10:04;98385.56;;;26.05;44.83
56414;BME280;42318;48.452;19.526;2022-07-22T10:17:36;98383.34;;;26.07;44.76
56414;BME280;42318;48.452;19.526;2022-07-22T10:25:10;98372.66;;;26.05;44.82
56414;BME280;42318;48.452;19.526;2022-07-22T10:32:41;98371.25;;;26.08;44.84
56414;BME280;42318;48.452;19.526;2022-07-22T10:55:23;98346.44;;;26.13;45.06
56414;BME280;42318;48.452;19.526;2022-07-22T11:02:53;98330.50;;;26.15;45.24
56414;BME280;42318;48.452;19.526;2022-07-22T11:10:24;98327.44;;;26.16;45.17
56414;BME280;42318;48.452;19.526;2022-07-22T11:17:56;98317.28;;;26.17;45.11
56414;BME280;42318;48.452;19.526;2022-07-22T11:25:26;98303.75;;;26.20;45.10
56414;BME280;42318;48.452;19.526;2022-07-22T11:32:57;98300.72;;;26.22;45.29
56414;BME280;42318;48.452;19.526;2022-07-22T11:40:32;98282.31;;;26.22;45.21
56414;BME280;42318;48.452;19.526;2022-07-22T11:48:10;98271.31;;;26.22;45.19
56414;BME280;42318;48.452;19.526;2022-07-22T11:55:41;98264.41;;;26.25;45.21
56414;BME280;42318;48.452;19.526;2022-07-22T12:03:11;98235.00;;;26.25;45.40
56414;BME280;42318;48.452;19.526;2022-07-22T12:10:42;98240.72;;;26.29;45.12
56414;BME280;42318;48.452;19.526;2022-07-22T12:18:21;98247.81;;;26.30;45.44
56414;BME280;42318;48.452;19.526;2022-07-22T12:26:01;98236.34;;;26.28;45.44
56414;BME280;42318;48.452;19.526;2022-07-22T12:33:32;98231.03;;;26.32;45.41
56414;BME280;42318;48.452;19.526;2022-07-22T12:41:25;98231.59;;;26.34;45.54
56414;BME280;42318;48.452;19.526;2022-07-22T12:48:56;98218.44;;;26.30;45.26
56414;BME280;42318;48.452;19.526;2022-07-22T12:56:30;98213.19;;;26.34;45.20
56414;BME280;42318;48.452;19.526;2022-07-22T13:04:01;98209.81;;;26.37;45.62
56414;BME280;42318;48.452;19.526;2022-07-22T13:11:34;98210.94;;;26.36;45.49
56414;BME280;42318;48.452;19.526;2022-07-22T13:19:09;98207.06;;;26.37;45.39
56414;BME280;42318;48.452;19.526;2022-07-22T13:26:40;98207.28;;;26.41;45.41
56414;BME280;42318;48.452;19.526;2022-07-22T13:34:11;98205.03;;;26.43;45.52
56414;BME280;42318;48.452;19.526;2022-07-22T13:41:42;98185.50;;;26.44;45.33
56414;BME280;42318;48.452;19.526;2022-07-22T13:49:12;98182.47;;;26.46;45.40
56414;BME280;42318;48.452;19.526;2022-07-22T13:56:43;98189.28;;;26.48;45.32
56414;BME280;42318;48.452;19.526;2022-07-22T14:04:17;98184.63;;;26.49;45.09
56414;BME280;42318;48.452;19.526;2022-07-22T14:11:48;98183.50;;;26.50;45.12
56414;BME280;42318;48.452;19.526;2022-07-22T14:19:19;98171.09;;;26.52;45.17
56414;BME280;42318;48.452;19.526;2022-07-22T14:26:50;98177.06;;;26.54;45.20
56414;BME280;42318;48.452;19.526;2022-07-22T14:34:20;98175.97;;;26.55;45.30
56414;BME280;42318;48.452;19.526;2022-07-22T14:41:51;98185.53;;;26.58;45.45
56414;BME280;42318;48.452;19.526;2022-07-22T14:49:22;98188.78;;;26.60;45.27
56414;BME280;42318;48.452;19.526;2022-07-22T14:56:52;98190.41;;;26.61;45.23
56414;BME280;42318;48.452;19.526;2022-07-22T15:04:23;98178.59;;;26.60;45.50
56414;BME280;42318;48.452;19.526;2022-07-22T15:11:54;98182.66;;;26.63;45.62
56414;BME280;42318;48.452;19.526;2022-07-22T15:19:24;98182.34;;;26.65;45.54
56414;BME280;42318;48.452;19.526;2022-07-22T15:26:55;98188.38;;;26.67;45.32
56414;BME280;42318;48.452;19.526;2022-07-22T15:34:31;98191.09;;;26.67;45.43
56414;BME280;42318;48.452;19.526;2022-07-22T15:42:03;98185.31;;;26.68;45.55
56414;BME280;42318;48.452;19.526;2022-07-22T15:49:34;98164.75;;;26.66;45.48
56414;BME280;42318;48.452;19.526;2022-07-22T15:57:05;98164.94;;;26.69;45.66
56414;BME280;42318;48.452;19.526;2022-07-22T16:04:54;98167.38;;;26.71;45.54
56414;BME280;42318;48.452;19.526;2022-07-22T16:12:24;98166.25;;;26.72;45.72
56414;BME280;42318;48.452;19.526;2022-07-22T16:19:55;98174.19;;;26.73;45.51
56414;BME280;42318;48.452;19.526;2022-07-22T16:27:26;98176.94;;;26.73;45.52
56414;BME280;42318;48.452;19.526;2022-07-22T16:34:57;98191.19;;;26.75;45.47
56414;BME280;42318;48.452;19.526;2022-07-22T16:42:27;98179.38;;;26.75;45.73
56414;BME280;42318;48.452;19.526;2022-07-22T16:49:58;98190.88;;;26.77;45.73
56414;BME280;42318;48.452;19.526;2022-07-22T16:57:29;98191.72;;;26.77;45.68
56414;BME280;42318;48.452;19.526;2022-07-22T17:04:59;98188.97;;;26.77;45.40
56414;BME280;42318;48.452;19.526;2022-07-22T17:12:30;98186.72;;;26.79;45.76
56414;BME280;42318;48.452;19.526;2022-07-22T17:20:02;98184.78;;;26.80;45.61
56414;BME280;42318;48.452;19.526;2022-07-22T17:27:33;98198.53;;;26.80;45.54
56414;BME280;42318;48.452;19.526;2022-07-22T17:35:04;98208.41;;;26.81;45.92
56414;BME280;42318;48.452;19.526;2022-07-22T17:42:35;98215.50;;;26.82;45.78
56414;BME280;42318;48.452;19.526;2022-07-22T17:50:06;98217.16;;;26.83;45.83
56414;BME280;42318;48.452;19.526;2022-07-22T17:57:37;98214.41;;;26.83;45.75
56414;BME280;42318;48.452;19.526;2022-07-22T18:05:07;98227.84;;;26.84;46.08
56414;BME280;42318;48.452;19.526;2022-07-22T18:12:42;98232.53;;;26.84;45.85
56414;BME280;42318;48.452;19.526;2022-07-22T18:20:12;98256.13;;;26.85;45.97
56414;BME280;42318;48.452;19.526;2022-07-22T18:27:43;98256.94;;;26.85;46.21
56414;BME280;42318;48.452;19.526;2022-07-22T18:35:14;98272.63;;;26.85;46.44
56414;BME280;42318;48.452;19.526;2022-07-22T18:42:45;98282.19;;;26.87;46.22
56414;BME280;42318;48.452;19.526;2022-07-22T18:50:15;98300.56;;;26.92;45.96
56414;BME280;42318;48.452;19.526;2022-07-22T18:57:46;98308.50;;;26.94;46.25
56414;BME280;42318;48.452;19.526;2022-07-22T19:05:17;98316.44;;;26.95;46.17
56414;BME280;42318;48.452;19.526;2022-07-22T19:12:47;98320.22;;;26.99;46.20
56414;BME280;42318;48.452;19.526;2022-07-22T19:20:18;98332.56;;;27.02;46.53
56414;BME280;42318;48.452;19.526;2022-07-22T19:27:50;98323.38;;;27.06;47.18
56414;BME280;42318;48.452;19.526;2022-07-22T19:35:21;98333.34;;;27.16;46.79
56414;BME280;42318;48.452;19.526;2022-07-22T19:42:51;98323.38;;;27.20;46.94
56414;BME280;42318;48.452;19.526;2022-07-22T19:50:22;98330.28;;;27.31;46.59
56414;BME280;42318;48.452;19.526;2022-07-22T19:57:53;98343.94;;;27.36;46.33
56414;BME280;42318;48.452;19.526;2022-07-22T20:05:24;98345.78;;;27.41;45.06
56414;BME280;42318;48.452;19.526;2022-07-22T20:12:55;98346.19;;;27.20;43.01
56414;BME280;42318;48.452;19.526;2022-07-22T20:20:26;98348.13;;;27.06;41.06
56414;BME280;42318;48.452;19.526;2022-07-22T20:27:57;98343.84;;;27.00;42.07
56414;BME280;42318;48.452;19.526;2022-07-22T20:35:27;98340.88;;;26.97;42.01
56414;BME280;42318;48.452;19.526;2022-07-22T20:42:58;98336.59;;;26.90;41.40
56414;BME280;42318;48.452;19.526;2022-07-22T20:50:29;98341.19;;;26.95;41.15
56414;BME280;42318;48.452;19.526;2022-07-22T20:58:00;98329.63;;;26.79;40.75
56414;BME280;42318;48.452;19.526;2022-07-22T21:05:30;98323.13;;;26.75;40.90
56414;BME280;42318;48.452;19.526;2022-07-22T21:13:01;98321.28;;;26.71;41.08
56414;BME280;42318;48.452;19.526;2022-07-22T21:20:32;98318.03;;;26.69;41.11
56414;BME280;42318;48.452;19.526;2022-07-22T21:28:03;98316.81;;;26.61;41.50
56414;BME280;42318;48.452;19.526;2022-07-22T21:35:36;98317.00;;;26.51;41.99
56414;BME280;42318;48.452;19.526;2022-07-22T21:43:07;98315.72;;;26.43;41.54
56414;BME280;42318;48.452;19.526;2022-07-22T21:50:38;98316.13;;;26.37;41.97
56414;BME280;42318;48.452;19.526;2022-07-22T21:58:10;98319.19;;;26.35;42.30
56414;BME280;42318;48.452;19.526;2022-07-22T22:05:40;98327.47;;;26.30;41.97
56414;BME280;42318;48.452;19.526;2022-07-22T22:13:11;98325.69;;;26.39;42.05
56414;BME280;42318;48.452;19.526;2022-07-22T22:20:42;98327.94;;;26.37;41.88
56414;BME280;42318;48.452;19.526;2022-07-22T22:28:12;98326.66;;;26.29;41.16
56414;BME280;42318;48.452;19.526;2022-07-22T22:35:43;98329.88;;;26.18;41.67
56414;BME280;42318;48.452;19.526;2022-07-22T22:43:14;98320.09;;;26.12;41.87
56414;BME280;42318;48.452;19.526;2022-07-22T22:50:45;98328.44;;;26.07;42.27
56414;BME280;42318;48.452;19.526;2022-07-22T22:58:15;98329.03;;;26.04;42.15
56414;BME280;42318;48.452;19.526;2022-07-22T23:05:46;98326.59;;;26.02;42.50
56414;BME280;42318;48.452;19.526;2022-07-22T23:13:17;98324.91;;;26.01;42.16
56414;BME280;42318;48.452;19.526;2022-07-22T23:20:48;98334.56;;;25.98;42.40
56414;BME280;42318;48.452;19.526;2022-07-22T23:28:19;98324.88;;;26.06;42.04
56414;BME280;42318;48.452;19.526;2022-07-22T23:35:50;98334.28;;;26.00;41.72
56414;BME280;42318;48.452;19.526;2022-07-22T23:43:21;98326.50;;;26.07;41.89
56414;BME280;42318;48.452;19.526;2022-07-22T23:50:52;98320.63;;;26.14;41.38
56414;BME280;42318;48.452;19.526;2022-07-22T23:58:22;98313.81;;;26.11;41.79
